Saint Vincent, Minnesota
Current Conditions -  °F | °C
As of 10:34 PM on Thursday 18 Dec 2014 (Local Time) from KHCO Reporting Station
Overcast Overcast  
Wind Chill:   Ceiling: 1200
Heat Index: 19°   Visibility: 7mi
Dew Point: 18°   Wind: 13mph
Humidity: 93%   Direction: 170°S
Pressure: 30.14"   Gusts: NA
Location:  48.97°N, 97.23°W
Report Text: KHCO 190434Z AUTO 17011KT 7SM OVC012 M07/M08 A3014 RMK AO2
Loading
Personal Weather Stations






























Interactive Weather Map New forecast layout! Learn more

10-Day Weather Forecast

Advertisements
Track Severe Weather on mobile